createdAt,value
2023-10-14T00:01:53.093Z,8.07
2023-10-14T00:04:23.256Z,11.43
2023-10-14T00:06:50.331Z,8.70
2023-10-14T00:09:17.754Z,8.90
2023-10-14T00:11:45.470Z,9.65
2023-10-14T00:14:16.999Z,8.37
2023-10-14T00:16:54.104Z,10.68
2023-10-14T00:19:25.573Z,12.98
2023-10-14T00:21:52.741Z,12.70
2023-10-14T00:24:29.700Z,11.70
2023-10-14T00:27:03.633Z,10.57
2023-10-14T00:29:31.006Z,10.88
2023-10-14T00:32:00.593Z,10.52
2023-10-14T00:34:28.048Z,8.98
2023-10-14T00:36:55.214Z,9.40
2023-10-14T00:39:28.773Z,9.37
2023-10-14T00:41:56.981Z,9.77
2023-10-14T00:44:29.277Z,10.07
2023-10-14T00:46:57.326Z,10.65
2023-10-14T00:49:33.356Z,7.95
2023-10-14T00:52:08.210Z,9.17
2023-10-14T00:54:47.189Z,8.65
2023-10-14T00:57:17.566Z,8.45
2023-10-14T00:59:46.241Z,9.95
2023-10-14T01:02:14.524Z,8.30
2023-10-14T01:04:48.799Z,8.03
2023-10-14T01:07:17.117Z,10.93
2023-10-14T01:09:47.535Z,12.27
2023-10-14T01:12:25.138Z,9.52
2023-10-14T01:14:54.105Z,10.00
2023-10-14T01:17:32.094Z,8.73
2023-10-14T01:20:20.694Z,12.13
2023-10-14T01:23:08.010Z,9.98
2023-10-14T01:25:43.218Z,10.15
2023-10-14T01:28:14.152Z,9.02
2023-10-14T01:31:33.629Z,10.10
2023-10-14T01:34:06.809Z,7.15
2023-10-14T01:36:39.542Z,10.20
2023-10-14T01:39:10.638Z,8.50
2023-10-14T01:41:38.066Z,10.70
2023-10-14T01:44:07.331Z,8.73
2023-10-14T01:46:36.080Z,11.40
2023-10-14T01:49:12.521Z,11.82
2023-10-14T01:51:40.069Z,10.10
2023-10-14T01:54:08.987Z,9.02
2023-10-14T01:56:36.227Z,8.70
2023-10-14T01:59:03.532Z,10.05
2023-10-14T02:01:36.055Z,12.40
2023-10-14T02:04:05.127Z,11.35
2023-10-14T02:06:33.040Z,11.73
2023-10-14T02:09:05.929Z,11.50
2023-10-14T02:11:36.520Z,10.38
2023-10-14T02:14:09.333Z,12.10
2023-10-14T02:16:42.647Z,15.10
2023-10-14T02:19:38.358Z,15.55
2023-10-14T02:22:11.018Z,14.43
2023-10-14T02:24:38.964Z,16.35
2023-10-14T02:27:13.757Z,13.73
2023-10-14T02:29:48.336Z,15.77
2023-10-14T02:32:16.489Z,14.93
2023-10-14T02:34:46.867Z,16.07
2023-10-14T02:37:15.543Z,13.75
2023-10-14T02:39:46.122Z,10.40
2023-10-14T02:42:16.753Z,12.95
2023-10-14T02:44:53.638Z,12.27
2023-10-14T02:47:23.157Z,17.00
2023-10-14T02:49:55.461Z,16.10
2023-10-14T02:52:30.602Z,17.90
2023-10-14T02:55:17.455Z,17.77
2023-10-14T02:57:47.948Z,11.35
2023-10-14T03:00:22.158Z,13.50
2023-10-14T03:03:04.509Z,9.38
2023-10-14T03:05:52.469Z,12.95
2023-10-14T03:08:21.935Z,8.73
2023-10-14T03:11:01.276Z,11.88
2023-10-14T03:13:31.056Z,9.73
2023-10-14T03:15:59.551Z,13.50
2023-10-14T03:18:39.033Z,47.47
2023-10-14T03:21:10.896Z,25.40
2023-10-14T03:23:39.538Z,24.40
2023-10-14T03:26:15.458Z,16.17
2023-10-14T03:28:46.231Z,22.33
2023-10-14T03:31:18.510Z,15.35
2023-10-14T03:33:46.706Z,27.55
2023-10-14T03:36:17.226Z,27.15
2023-10-14T03:38:48.946Z,24.60
2023-10-14T03:41:22.923Z,25.95
2023-10-14T03:43:58.105Z,23.50
2023-10-14T03:46:35.506Z,19.45
2023-10-14T03:49:27.621Z,15.20
2023-10-14T03:51:58.242Z,10.90
2023-10-14T03:54:30.260Z,12.55
2023-10-14T03:56:58.642Z,10.52
2023-10-14T03:59:27.291Z,11.68
2023-10-14T04:02:00.571Z,10.77
2023-10-14T04:04:31.352Z,11.50
2023-10-14T04:07:01.893Z,12.98
2023-10-14T04:09:52.905Z,14.48
2023-10-14T04:12:31.877Z,12.85
2023-10-14T04:15:16.502Z,9.30
2023-10-14T04:17:49.644Z,10.73
2023-10-14T04:20:23.656Z,11.25
2023-10-14T04:22:53.927Z,17.60
2023-10-14T04:25:23.431Z,13.13
2023-10-14T04:27:52.841Z,12.90
2023-10-14T04:30:22.530Z,12.70
2023-10-14T04:33:05.609Z,10.90
2023-10-14T04:35:34.117Z,13.55
2023-10-14T04:38:18.824Z,20.63
2023-10-14T04:40:55.237Z,35.13
2023-10-14T04:43:43.262Z,19.50
2023-10-14T04:46:18.003Z,24.85
2023-10-14T04:48:53.114Z,18.67
2023-10-14T04:51:21.288Z,15.05
2023-10-14T04:53:51.305Z,12.30
2023-10-14T04:56:25.163Z,11.40
2023-10-14T04:58:54.905Z,15.45
2023-10-14T05:01:26.333Z,16.20
2023-10-14T05:03:58.713Z,21.77
2023-10-14T05:06:42.130Z,14.60
2023-10-14T05:09:26.267Z,21.20
2023-10-14T05:11:55.022Z,21.23
2023-10-14T05:14:35.219Z,20.83
2023-10-14T05:17:25.609Z,15.68
2023-10-14T05:19:59.143Z,17.85
2023-10-14T05:22:38.703Z,31.80
2023-10-14T05:25:17.203Z,17.23
2023-10-14T05:27:56.168Z,17.70
2023-10-14T05:30:24.148Z,22.67
2023-10-14T05:32:52.844Z,25.77
2023-10-14T05:35:23.768Z,20.20
2023-10-14T05:37:52.003Z,18.85
2023-10-14T05:40:23.288Z,16.02
2023-10-14T05:42:52.202Z,13.95
2023-10-14T05:45:19.674Z,18.13
2023-10-14T05:47:48.197Z,13.97
2023-10-14T05:50:16.982Z,16.05
2023-10-14T05:52:47.511Z,13.15
2023-10-14T05:55:21.340Z,14.77
2023-10-14T05:57:49.622Z,16.05
2023-10-14T06:00:23.467Z,15.67
2023-10-14T06:02:53.588Z,15.55
2023-10-14T06:05:28.519Z,15.65
2023-10-14T06:08:01.726Z,12.38
2023-10-14T06:10:31.080Z,14.23
2023-10-14T06:12:58.795Z,17.07
2023-10-14T06:15:27.467Z,15.95
2023-10-14T06:17:58.877Z,14.18
2023-10-14T06:20:25.856Z,17.08
2023-10-14T06:22:58.465Z,14.88
2023-10-14T06:25:25.447Z,13.70
2023-10-14T06:27:55.207Z,12.57
2023-10-14T06:30:22.613Z,15.93
2023-10-14T06:32:54.335Z,10.18
2023-10-14T06:35:21.411Z,13.10
2023-10-14T06:37:50.291Z,14.00
2023-10-14T06:40:21.028Z,9.80
2023-10-14T06:42:51.793Z,10.60
2023-10-14T06:45:33.193Z,12.00
2023-10-14T06:48:04.480Z,12.90
2023-10-14T06:50:33.113Z,11.47
2023-10-14T06:53:00.563Z,10.25
2023-10-14T06:55:28.799Z,12.25
2023-10-14T06:57:56.792Z,10.43
2023-10-14T07:00:27.465Z,14.32
2023-10-14T07:02:55.197Z,12.50
2023-10-14T07:05:22.761Z,11.75
2023-10-14T07:07:51.036Z,9.63
2023-10-14T07:10:18.849Z,13.07
2023-10-14T07:12:46.245Z,13.40
2023-10-14T07:15:16.137Z,9.60
2023-10-14T07:17:44.478Z,10.50
2023-10-14T07:20:12.056Z,10.55
2023-10-14T07:22:43.544Z,10.13
2023-10-14T07:25:11.463Z,10.13
2023-10-14T07:27:42.293Z,13.33
2023-10-14T07:30:15.074Z,18.77
2023-10-14T07:32:44.560Z,13.63
2023-10-14T07:35:15.995Z,14.20
2023-10-14T07:37:47.104Z,14.40
2023-10-14T07:40:32.204Z,11.97
2023-10-14T07:43:06.623Z,10.88
2023-10-14T07:45:35.426Z,11.65
2023-10-14T07:48:10.026Z,15.02
2023-10-14T07:50:45.374Z,9.70
2023-10-14T07:53:16.052Z,8.40
2023-10-14T07:55:50.156Z,9.82
2023-10-14T07:58:24.920Z,13.45
2023-10-14T08:00:54.391Z,12.50
2023-10-14T08:03:24.465Z,12.32
2023-10-14T08:05:55.060Z,11.23
2023-10-14T08:08:23.946Z,13.95
2023-10-14T08:10:52.617Z,10.88
2023-10-14T08:13:22.657Z,12.30
2023-10-14T08:15:53.262Z,10.35
2023-10-14T08:18:24.921Z,11.17
2023-10-14T08:20:58.035Z,12.23
2023-10-14T08:23:26.651Z,13.65
2023-10-14T08:25:58.433Z,11.15
2023-10-14T08:28:26.654Z,12.30
2023-10-14T08:30:53.815Z,14.27
2023-10-14T08:33:23.229Z,14.63
2023-10-14T08:35:52.538Z,13.52
2023-10-14T08:38:23.574Z,12.15
2023-10-14T08:40:55.021Z,11.00
2023-10-14T08:43:24.525Z,8.53
2023-10-14T08:45:52.852Z,11.10
2023-10-14T08:48:25.389Z,15.10
2023-10-14T08:50:56.460Z,14.10
2023-10-14T08:53:24.864Z,14.27
2023-10-14T08:55:53.765Z,10.67
2023-10-14T08:58:23.857Z,9.77
2023-10-14T09:00:56.136Z,9.45
2023-10-14T09:03:26.336Z,13.93
2023-10-14T09:05:53.683Z,9.63
2023-10-14T09:08:21.662Z,12.53
2023-10-14T09:10:52.275Z,11.30
2023-10-14T09:13:22.659Z,11.05
2023-10-14T09:15:51.585Z,13.40
2023-10-14T09:18:22.826Z,8.88
2023-10-14T09:20:57.283Z,12.80
2023-10-14T09:23:41.301Z,13.18
2023-10-14T09:26:08.560Z,11.35
2023-10-14T09:28:41.722Z,9.15
2023-10-14T09:31:10.804Z,10.00
2023-10-14T09:33:45.980Z,10.37
2023-10-14T09:36:21.979Z,9.15
2023-10-14T09:38:50.599Z,11.52
2023-10-14T09:41:18.589Z,9.10
2023-10-14T09:43:47.988Z,9.95
2023-10-14T09:46:19.068Z,13.23
2023-10-14T09:48:47.111Z,8.18
2023-10-14T09:51:17.858Z,10.85
2023-10-14T09:53:50.483Z,9.40
2023-10-14T09:56:26.016Z,9.85
2023-10-14T09:59:03.087Z,10.07
2023-10-14T10:01:30.861Z,9.60
2023-10-14T10:04:07.479Z,11.88
2023-10-14T10:06:50.429Z,20.20
2023-10-14T10:09:59.296Z,42.42
2023-10-14T10:12:29.073Z,13.13
2023-10-14T10:15:03.271Z,13.25
2023-10-14T10:17:32.003Z,10.30
2023-10-14T10:19:59.279Z,12.10
2023-10-14T10:22:40.651Z,12.05
2023-10-14T10:25:11.228Z,10.27
2023-10-14T10:27:38.515Z,12.18
2023-10-14T10:30:08.913Z,10.95
2023-10-14T10:32:35.909Z,11.15
2023-10-14T10:35:14.903Z,10.98
2023-10-14T10:38:02.069Z,11.63
2023-10-14T10:40:30.007Z,11.25
2023-10-14T10:43:11.340Z,12.98
2023-10-14T10:45:43.953Z,8.55
2023-10-14T10:48:17.857Z,10.00
2023-10-14T10:50:51.957Z,9.20
2023-10-14T10:53:20.912Z,11.20
2023-10-14T10:55:52.170Z,10.48
2023-10-14T10:58:22.512Z,10.18
2023-10-14T11:00:53.088Z,8.57
2023-10-14T11:03:20.481Z,11.43
2023-10-14T11:05:49.075Z,12.90
2023-10-14T11:08:19.316Z,7.78
2023-10-14T11:10:46.847Z,12.50
2023-10-14T11:13:17.656Z,10.38
2023-10-14T11:15:46.515Z,8.77
2023-10-14T11:18:27.242Z,11.38
2023-10-14T11:21:02.361Z,7.47
2023-10-14T11:23:29.533Z,10.02
2023-10-14T11:26:04.698Z,7.68
2023-10-14T11:28:32.164Z,11.97
2023-10-14T11:30:59.675Z,11.05
2023-10-14T11:33:27.800Z,10.38
2023-10-14T11:35:55.101Z,11.30
2023-10-14T11:38:27.364Z,10.65
2023-10-14T11:40:54.869Z,11.57
2023-10-14T11:43:22.882Z,8.77
2023-10-14T11:45:50.284Z,9.50
2023-10-14T11:48:26.195Z,9.15
2023-10-14T11:50:54.259Z,14.48
2023-10-14T11:53:29.240Z,12.80
2023-10-14T11:56:02.020Z,12.60
2023-10-14T11:58:31.839Z,12.82
2023-10-14T12:00:59.739Z,10.55
2023-10-14T12:03:27.705Z,11.55
2023-10-14T12:05:59.193Z,12.17
2023-10-14T12:08:27.588Z,16.20
2023-10-14T12:10:55.781Z,19.67
2023-10-14T12:13:30.935Z,11.52
2023-10-14T12:16:07.512Z,14.23
2023-10-14T12:18:37.888Z,10.53
2023-10-14T12:21:05.336Z,18.38
2023-10-14T12:23:32.861Z,11.32
2023-10-14T12:26:01.974Z,9.25
2023-10-14T12:28:34.777Z,14.07
2023-10-14T12:31:14.136Z,8.93
2023-10-14T12:33:43.266Z,10.38
2023-10-14T12:36:12.491Z,15.43
2023-10-14T12:38:44.536Z,6.97
2023-10-14T12:41:21.665Z,6.97
2023-10-14T12:43:52.631Z,8.37
2023-10-14T12:46:20.714Z,17.65
2023-10-14T12:48:49.917Z,10.95
2023-10-14T12:51:27.117Z,14.52
2023-10-14T12:53:59.292Z,9.57
2023-10-14T12:56:29.649Z,7.40
2023-10-14T12:58:59.424Z,9.82
2023-10-14T13:01:26.814Z,14.85
2023-10-14T13:03:55.095Z,16.80
2023-10-14T13:06:28.070Z,16.52
2023-10-14T13:09:00.158Z,8.73
2023-10-14T13:11:31.572Z,7.05
2023-10-14T13:13:59.681Z,5.13
2023-10-14T13:16:28.229Z,3.83
2023-10-14T13:18:58.304Z,2.72
2023-10-14T13:21:32.102Z,2.63
2023-10-14T13:24:05.413Z,2.03
2023-10-14T13:26:32.800Z,2.13
2023-10-14T13:28:59.751Z,1.90
2023-10-14T13:31:28.406Z,2.97
2023-10-14T13:33:56.549Z,2.30
2023-10-14T13:36:24.772Z,3.00
2023-10-14T13:38:51.772Z,2.65
2023-10-14T13:41:19.022Z,2.47
2023-10-14T13:43:47.088Z,2.28
2023-10-14T13:46:15.525Z,2.00
2023-10-14T13:48:42.523Z,2.10
2023-10-14T13:51:10.073Z,1.90
2023-10-14T13:53:37.001Z,2.72
2023-10-14T13:56:06.351Z,1.75
2023-10-14T13:58:35.901Z,2.53
2023-10-14T14:01:05.770Z,1.77
2023-10-14T14:03:33.271Z,2.03
2023-10-14T14:06:06.766Z,1.65
2023-10-14T14:08:34.827Z,1.60
2023-10-14T14:11:02.778Z,1.60
2023-10-14T14:13:31.059Z,1.90
2023-10-14T14:16:00.930Z,3.75
2023-10-14T14:18:28.335Z,2.08
2023-10-14T14:20:55.626Z,2.45
2023-10-14T14:23:23.754Z,2.30
2023-10-14T14:25:51.271Z,2.22
2023-10-14T14:28:19.268Z,2.00
2023-10-14T14:30:51.339Z,1.67
2023-10-14T14:33:19.409Z,1.50
2023-10-14T14:35:48.855Z,2.73
2023-10-14T14:38:17.863Z,1.48
2023-10-14T14:40:46.509Z,1.60
2023-10-14T14:43:14.068Z,1.20
2023-10-14T14:45:41.685Z,2.05
2023-10-14T14:48:11.765Z,2.03
2023-10-14T14:50:39.407Z,1.63
2023-10-14T14:53:07.967Z,1.88
2023-10-14T14:55:42.859Z,1.95
2023-10-14T14:58:10.673Z,1.52
2023-10-14T15:00:43.286Z,1.60
2023-10-14T15:03:13.297Z,3.85
2023-10-14T15:05:42.898Z,2.13
2023-10-14T15:08:14.422Z,2.83
2023-10-14T15:10:48.814Z,1.65
2023-10-14T15:13:18.063Z,2.03
2023-10-14T15:15:51.750Z,1.63
2023-10-14T15:18:19.733Z,2.03
2023-10-14T15:20:47.226Z,2.92
2023-10-14T15:23:16.688Z,2.00
2023-10-14T15:25:45.663Z,2.53
2023-10-14T15:28:13.184Z,2.15
2023-10-14T15:30:42.661Z,2.22
2023-10-14T15:33:11.592Z,2.90
2023-10-14T15:35:39.182Z,2.85
2023-10-14T15:38:10.002Z,2.40
2023-10-14T15:40:37.723Z,2.42
2023-10-14T15:43:06.905Z,3.67
2023-10-14T15:45:37.503Z,3.03
2023-10-14T15:48:10.843Z,3.00
2023-10-14T15:50:45.820Z,3.37
2023-10-14T15:53:14.137Z,2.97
2023-10-14T15:55:43.779Z,3.55
2023-10-14T15:58:11.874Z,2.75
2023-10-14T16:00:41.105Z,3.40
2023-10-14T16:03:10.134Z,3.50
2023-10-14T16:05:40.783Z,3.03
2023-10-14T16:08:15.131Z,4.07
2023-10-14T16:10:46.194Z,4.43
2023-10-14T16:13:16.744Z,4.45
2023-10-14T16:15:44.985Z,6.13
2023-10-14T16:18:13.561Z,3.90
2023-10-14T16:20:41.243Z,5.13
2023-10-14T16:23:08.897Z,4.25
2023-10-14T16:25:36.924Z,5.97
2023-10-14T16:28:04.462Z,4.70
2023-10-14T16:30:33.996Z,4.07
2023-10-14T16:33:01.082Z,5.18
2023-10-14T16:35:32.459Z,4.00
2023-10-14T16:38:01.251Z,5.75
2023-10-14T16:40:29.836Z,5.47
2023-10-14T16:43:02.282Z,3.45
2023-10-14T16:45:29.988Z,6.43
2023-10-14T16:47:57.994Z,5.85
2023-10-14T16:50:28.697Z,8.13
2023-10-14T16:52:57.999Z,6.90
2023-10-14T16:55:26.531Z,5.90
2023-10-14T16:57:54.748Z,5.45
2023-10-14T17:00:24.040Z,4.97
2023-10-14T17:02:53.469Z,5.00
2023-10-14T17:05:25.036Z,5.83
2023-10-14T17:07:54.958Z,8.65
2023-10-14T17:10:27.159Z,8.50
2023-10-14T17:13:01.879Z,7.28
2023-10-14T17:15:29.646Z,5.78
2023-10-14T17:18:01.717Z,9.97
2023-10-14T17:20:31.501Z,5.60
2023-10-14T17:23:01.968Z,8.57
2023-10-14T17:25:33.604Z,6.45
2023-10-14T17:28:06.587Z,9.15
2023-10-14T17:30:34.859Z,6.20
2023-10-14T17:33:03.931Z,10.07
2023-10-14T17:35:33.606Z,5.95
2023-10-14T17:38:02.268Z,10.32
2023-10-14T17:40:30.766Z,9.02
2023-10-14T17:43:04.315Z,7.07
2023-10-14T17:45:33.748Z,8.70
2023-10-14T17:48:01.915Z,8.38
2023-10-14T17:50:29.595Z,8.88
2023-10-14T17:53:01.492Z,9.55
2023-10-14T17:55:29.809Z,7.33
2023-10-14T17:58:01.972Z,7.53
2023-10-14T18:00:32.712Z,6.90
2023-10-14T18:03:06.582Z,5.03
2023-10-14T18:05:33.966Z,7.22
2023-10-14T18:08:00.902Z,9.70
2023-10-14T18:10:29.691Z,8.00
2023-10-14T18:13:00.661Z,5.15
2023-10-14T18:15:29.294Z,5.90
2023-10-14T18:17:57.124Z,5.22
2023-10-14T18:20:28.084Z,5.67
2023-10-14T18:23:05.465Z,7.57
2023-10-14T18:25:42.514Z,7.07
2023-10-14T18:28:10.569Z,6.47
2023-10-14T18:30:41.679Z,4.38
2023-10-14T18:33:12.537Z,5.10
2023-10-14T18:35:40.975Z,5.70
2023-10-14T18:38:12.744Z,4.93
2023-10-14T18:40:46.440Z,4.78
2023-10-14T18:43:16.708Z,6.65
2023-10-14T18:45:44.467Z,5.60
2023-10-14T18:48:11.949Z,8.20
2023-10-14T18:50:43.446Z,6.55
2023-10-14T18:53:12.587Z,6.72
2023-10-14T18:55:42.154Z,6.85
2023-10-14T18:58:12.501Z,4.83
2023-10-14T19:00:45.449Z,5.35
2023-10-14T19:03:13.310Z,5.30
2023-10-14T19:05:42.425Z,5.63
2023-10-14T19:08:14.314Z,6.05
2023-10-14T19:10:48.640Z,4.80
2023-10-14T19:13:17.882Z,4.93
2023-10-14T19:15:47.886Z,7.07
2023-10-14T19:18:20.026Z,9.52
2023-10-14T19:20:48.050Z,5.20
2023-10-14T19:23:25.278Z,3.43
2023-10-14T19:25:57.588Z,4.63
2023-10-14T19:28:26.602Z,4.13
2023-10-14T19:30:57.518Z,4.10
2023-10-14T19:33:26.438Z,4.82
2023-10-14T19:35:57.777Z,4.13
2023-10-14T19:38:24.985Z,4.55
2023-10-14T19:41:05.463Z,4.90
2023-10-14T19:43:36.566Z,6.03
2023-10-14T19:46:10.498Z,6.82
2023-10-14T19:48:40.120Z,3.90
2023-10-14T19:51:13.034Z,5.07
2023-10-14T19:53:40.554Z,5.07
2023-10-14T19:56:12.732Z,4.70
2023-10-14T19:58:39.895Z,5.68
2023-10-14T20:01:08.771Z,3.73
2023-10-14T20:03:35.918Z,4.32
2023-10-14T20:06:05.430Z,5.13
2023-10-14T20:08:34.983Z,6.45
2023-10-14T20:11:03.565Z,6.97
2023-10-14T20:13:32.070Z,4.13
2023-10-14T20:15:59.521Z,4.40
2023-10-14T20:18:26.609Z,2.95
2023-10-14T20:20:53.945Z,4.05
2023-10-14T20:23:22.391Z,3.58
2023-10-14T20:25:55.919Z,4.60
2023-10-14T20:28:24.297Z,4.75
2023-10-14T20:30:51.701Z,4.40
2023-10-14T20:33:19.401Z,3.75
2023-10-14T20:35:47.531Z,6.47
2023-10-14T20:38:15.114Z,3.53
2023-10-14T20:40:45.663Z,4.55
2023-10-14T20:43:13.922Z,3.65
2023-10-14T20:45:42.447Z,5.40
2023-10-14T20:48:09.995Z,3.85
2023-10-14T20:50:41.319Z,3.13
2023-10-14T20:53:09.421Z,3.17
2023-10-14T20:55:39.591Z,3.83
2023-10-14T20:58:08.539Z,4.55
2023-10-14T21:00:38.553Z,6.25
2023-10-14T21:03:11.238Z,4.20
2023-10-14T21:05:39.908Z,3.45
2023-10-14T21:08:14.354Z,3.38
2023-10-14T21:10:43.367Z,5.60
2023-10-14T21:13:11.636Z,5.78
2023-10-14T21:15:40.624Z,5.27
2023-10-14T21:18:09.640Z,3.33
2023-10-14T21:20:43.333Z,6.18
2023-10-14T21:23:11.512Z,4.38
2023-10-14T21:25:41.150Z,7.75
2023-10-14T21:28:08.984Z,8.10
2023-10-14T21:30:36.432Z,6.28
2023-10-14T21:33:06.036Z,7.28
2023-10-14T21:35:37.933Z,4.65
2023-10-14T21:38:05.686Z,6.07
2023-10-14T21:40:33.444Z,4.90
2023-10-14T21:43:01.242Z,7.30
2023-10-14T21:45:36.530Z,8.52
2023-10-14T21:48:09.526Z,7.50
2023-10-14T21:50:37.516Z,8.25
2023-10-14T21:53:06.451Z,6.03
2023-10-14T21:55:43.139Z,4.63
2023-10-14T21:58:10.393Z,6.25
2023-10-14T22:00:50.810Z,6.43
2023-10-14T22:03:21.739Z,6.72
2023-10-14T22:05:49.689Z,6.27
2023-10-14T22:08:19.776Z,5.82
2023-10-14T22:10:53.683Z,6.18
2023-10-14T22:13:23.349Z,4.63
2023-10-14T22:15:51.212Z,6.20
2023-10-14T22:18:18.533Z,5.20
2023-10-14T22:20:45.858Z,4.30
2023-10-14T22:23:12.790Z,5.43
2023-10-14T22:25:42.885Z,5.63
2023-10-14T22:28:13.275Z,4.13
2023-10-14T22:30:41.142Z,3.80
2023-10-14T22:33:09.761Z,4.32
2023-10-14T22:35:37.664Z,4.13
2023-10-14T22:38:06.656Z,4.35
2023-10-14T22:40:36.975Z,4.80
2023-10-14T22:43:04.719Z,4.83
2023-10-14T22:45:34.919Z,5.03
2023-10-14T22:48:02.279Z,3.60
2023-10-14T22:50:30.367Z,5.38
2023-10-14T22:52:57.762Z,4.88
2023-10-14T22:55:27.845Z,5.30
2023-10-14T22:57:57.116Z,6.68
2023-10-14T23:00:31.141Z,4.53
2023-10-14T23:02:58.961Z,6.00
2023-10-14T23:05:31.008Z,4.40
2023-10-14T23:08:01.178Z,4.37
2023-10-14T23:10:33.296Z,3.92
2023-10-14T23:13:01.483Z,3.35
2023-10-14T23:15:30.847Z,4.55
2023-10-14T23:18:00.143Z,4.07
2023-10-14T23:20:29.188Z,5.27
2023-10-14T23:22:58.716Z,5.13
2023-10-14T23:25:28.183Z,3.88
2023-10-14T23:27:57.532Z,3.78
2023-10-14T23:30:25.764Z,3.25
2023-10-14T23:32:55.943Z,4.47
2023-10-14T23:35:25.721Z,4.30
2023-10-14T23:37:54.783Z,4.25
2023-10-14T23:40:24.049Z,6.18
2023-10-14T23:43:03.838Z,4.50
2023-10-14T23:45:32.845Z,4.07
2023-10-14T23:48:00.596Z,3.60
2023-10-14T23:50:27.911Z,4.13
2023-10-14T23:52:55.336Z,3.75
2023-10-14T23:55:24.502Z,3.67
2023-10-14T23:57:52.567Z,4.30
